Nakusp, Canada
Current Conditions -  °F | °C
As of 2:39 AM on Thursday 18 Dec 2014 (Local Time) from CYRV Reporting Station
Light Snow Light Snow  
Wind Chill: 28°   Ceiling: 2800
Heat Index: 28°   Visibility: 3mi
Dew Point: 27°   Wind: 0mph
Humidity: 93%   Direction: NA
Pressure: 30.02"   Gusts: NA
Location:  50.24°N, 117.8°W
Report Text: CYRV 181039Z AUTO 00000KT 3SM -SN FEW005 BKN028 OVC033 M02/M03 A3002 RMK SLP186
Loading
Personal Weather Stations






























Interactive Weather Map New forecast layout! Learn more

10-Day Weather Forecast

Advertisements
Track Severe Weather on mobile